Time;durP1;ratioP1;P1;durP2;ratioP2;P2;SDS_P1;SDS_P2;PMS_P1;PMS_P2;Temp;Humidity;BMP_temperature;BMP_pressure;BME280_temperature;BME280_humidity;BME280_pressure;Samples;Min_cycle;Max_cycle;Signal;HPM_P1;HPM_P2
2024/05/03 00:01:16;;;;;;;0.28;0.22;;;13.40;60.40;;;8.77;100.00;94900.25;5337898;26;20016;-47
2024/05/03 00:03:42;;;;;;;0.40;0.30;;;13.40;60.60;;;8.72;100.00;94905.59;5335774;26;20008;-48
2024/05/03 00:06:08;;;;;;;0.30;0.30;;;13.30;60.90;;;8.63;100.00;94907.19;5336794;26;20383;-51
2024/05/03 00:08:33;;;;;;;0.40;0.30;;;13.20;61.10;;;8.55;100.00;94919.13;5347724;26;20439;-51
2024/05/03 00:10:59;;;;;;;0.52;0.20;;;13.20;61.30;;;8.51;100.00;94929.50;5335881;26;20089;-53
2024/05/03 00:13:25;;;;;;;0.35;0.32;;;13.10;61.50;;;8.56;100.00;94929.50;5337254;26;20059;-54
2024/05/03 00:15:51;;;;;;;0.30;0.30;;;13.10;61.50;;;8.54;100.00;94925.50;5336464;26;20088;-49
2024/05/03 00:18:17;;;;;;;0.20;0.20;;;13.10;61.50;;;8.57;100.00;94940.91;5338287;26;20008;-51
2024/05/03 00:20:43;;;;;;;0.40;0.40;;;13.10;61.50;;;8.52;100.00;94933.75;5337046;26;20073;-48
2024/05/03 00:23:08;;;;;;;1.23;0.30;;;13.10;61.60;;;8.52;100.00;94935.59;5333452;26;20023;-46
2024/05/03 00:25:34;;;;;;;0.20;0.20;;;13.10;61.70;;;8.60;100.00;94940.38;5337191;26;20012;-49
2024/05/03 00:28:00;;;;;;;0.30;0.30;;;13.00;61.60;;;8.62;100.00;94948.06;5333525;26;20512;-48
2024/05/03 00:30:26;;;;;;;0.63;0.25;;;13.10;61.70;;;8.59;100.00;94952.06;5337570;26;20016;-52
2024/05/03 00:32:51;;;;;;;0.43;0.20;;;13.10;61.70;;;8.56;100.00;94953.41;5337181;26;20014;-51
2024/05/03 00:35:17;;;;;;;0.30;0.30;;;13.00;61.60;;;8.60;100.00;94943.03;5337279;26;20004;-48
2024/05/03 00:37:43;;;;;;;2.08;0.43;;;13.00;61.60;;;8.60;100.00;94948.34;5336472;26;20383;-46
2024/05/03 00:40:10;;;;;;;0.60;0.30;;;13.00;61.60;;;8.58;100.00;94943.28;5337043;26;20005;-48
2024/05/03 00:42:36;;;;;;;0.40;0.20;;;13.10;61.60;;;8.62;100.00;94942.75;5336648;26;20018;-48
2024/05/03 00:45:02;;;;;;;1.08;0.30;;;13.10;61.60;;;8.61;100.00;94943.81;5336666;26;20434;-46
2024/05/03 00:47:28;;;;;;;0.20;0.20;;;13.10;61.60;;;8.58;100.00;94947.81;5335125;26;20675;-46
2024/05/03 00:49:55;;;;;;;0.30;0.30;;;13.10;61.80;;;8.54;100.00;94938.78;5336540;26;20008;-46
2024/05/03 00:52:26;;;;;;;1.50;0.25;;;13.00;61.90;;;8.48;100.00;94940.66;5364094;26;20048;-46
2024/05/03 00:54:54;;;;;;;0.30;0.30;;;13.00;62.40;;;8.33;100.00;94936.09;5369085;26;20023;-46
2024/05/03 00:57:20;;;;;;;0.22;0.20;;;12.90;62.50;;;8.32;100.00;94941.69;5334478;26;20009;-47
2024/05/03 00:59:47;;;;;;;0.82;0.38;;;12.80;62.80;;;8.24;100.00;94940.38;5336169;26;20441;-50
2024/05/03 01:02:14;;;;;;;0.32;0.30;;;12.70;63.40;;;8.26;100.00;94940.09;5336216;26;20020;-48
2024/05/03 01:04:40;;;;;;;0.35;0.35;;;12.60;63.50;;;8.19;100.00;94939.56;5335136;26;20001;-46
2024/05/03 01:07:06;;;;;;;0.55;0.40;;;12.60;63.90;;;8.16;100.00;94937.44;5335571;26;20028;-49
2024/05/03 01:09:32;;;;;;;0.50;0.50;;;12.50;64.10;;;8.15;100.00;94939.31;5344336;26;20015;-49
2024/05/03 01:11:59;;;;;;;0.52;0.30;;;12.50;64.20;;;8.13;100.00;94935.31;5336378;26;20023;-48
2024/05/03 01:14:24;;;;;;;2.33;0.40;;;12.50;64.50;;;8.10;100.00;94944.59;5336475;26;20004;-52
2024/05/03 01:16:50;;;;;;;0.50;0.22;;;12.40;64.60;;;8.05;100.00;94948.06;5361970;26;20084;-49
2024/05/03 01:19:16;;;;;;;0.40;0.32;;;12.40;64.70;;;8.03;100.00;94944.84;5336777;26;20425;-48
2024/05/03 01:21:54;;;;;;;0.40;0.40;;;12.40;64.90;;;7.98;100.00;94949.34;5334928;26;20019;-49
2024/05/03 01:24:20;;;;;;;0.30;0.30;;;12.30;65.40;;;7.96;100.00;94954.13;5336379;26;20074;-46
2024/05/03 01:26:47;;;;;;;0.40;0.40;;;12.30;65.40;;;7.96;100.00;94959.41;5335481;26;20012;-47
2024/05/03 01:29:13;;;;;;;2.15;0.43;;;12.30;65.60;;;7.95;100.00;94953.31;5335801;26;20421;-47
2024/05/03 01:31:42;;;;;;;0.85;0.30;;;12.30;65.70;;;7.89;100.00;94954.38;5335903;26;20008;-50
2024/05/03 01:34:07;;;;;;;0.30;0.30;;;12.30;66.10;;;7.86;100.00;94962.84;5335947;26;20048;-48
2024/05/03 01:36:33;;;;;;;0.68;0.40;;;12.30;66.20;;;7.86;100.00;94963.63;5335573;26;20004;-46
2024/05/03 01:38:59;;;;;;;0.30;0.30;;;12.20;66.20;;;7.87;100.00;94967.91;5335326;26;20085;-47
2024/05/03 01:41:29;;;;;;;0.60;0.40;;;12.20;66.30;;;7.82;100.00;94973.19;5333363;26;20023;-48
2024/05/03 01:43:56;;;;;;;0.75;0.60;;;12.20;66.60;;;7.85;100.00;94969.22;5335948;26;20023;-48
2024/05/03 01:46:22;;;;;;;1.92;0.50;;;12.20;66.70;;;7.79;100.00;94968.41;5334041;26;20471;-46
2024/05/03 01:48:48;;;;;;;0.50;0.50;;;12.20;66.80;;;7.78;100.00;94969.47;5335785;26;20009;-49
2024/05/03 01:51:14;;;;;;;0.70;0.47;;;12.20;67.00;;;7.80;100.00;94966.53;5334385;26;20047;-52
2024/05/03 01:53:40;;;;;;;0.60;0.55;;;12.20;66.90;;;7.79;100.00;94970.25;5334784;26;20012;-49
2024/05/03 01:56:06;;;;;;;2.38;0.50;;;12.10;67.00;;;7.78;100.00;94971.34;5335819;26;20016;-51
2024/05/03 01:58:31;;;;;;;0.30;0.30;;;12.20;67.20;;;7.77;100.00;94975.03;5333495;26;20024;-47
2024/05/03 02:00:57;;;;;;;0.40;0.40;;;12.20;67.20;;;7.67;100.00;94972.34;5335420;26;20074;-51
2024/05/03 02:03:23;;;;;;;0.30;0.30;;;12.10;67.30;;;7.72;100.00;94975.03;5333732;26;20011;-55
2024/05/03 02:05:49;;;;;;;0.75;0.30;;;12.20;67.30;;;7.73;100.00;94969.44;5333967;26;20031;-53
2024/05/03 02:08:15;;;;;;;0.52;0.40;;;12.10;67.30;;;7.75;100.00;94977.16;5335506;26;20044;-48
2024/05/03 02:10:41;;;;;;;0.40;0.40;;;12.10;67.30;;;7.78;100.00;94982.72;5334336;26;20031;-48
2024/05/03 02:13:07;;;;;;;1.23;0.30;;;12.20;67.40;;;7.69;100.00;94972.91;5335680;26;20008;-47
2024/05/03 02:15:32;;;;;;;2.08;0.30;;;12.10;67.30;;;7.70;100.00;94971.81;5334353;26;20351;-53
2024/05/03 02:17:58;;;;;;;0.32;0.32;;;12.20;67.50;;;7.70;100.00;94979.78;5334635;26;20020;-53
2024/05/03 02:20:24;;;;;;;1.77;0.40;;;12.10;67.60;;;7.70;100.00;94983.22;5335667;26;20424;-55
2024/05/03 02:22:50;;;;;;;0.68;0.40;;;12.10;67.60;;;7.64;100.00;94993.00;5333940;26;20256;-55
2024/05/03 02:25:16;;;;;;;2.50;0.30;;;12.10;67.60;;;7.64;100.00;94974.44;5335618;26;20055;-53
2024/05/03 02:27:41;;;;;;;1.20;0.50;;;12.10;67.60;;;7.68;100.00;94990.66;5333250;26;20015;-48
2024/05/03 02:30:08;;;;;;;0.50;0.30;;;12.10;67.50;;;7.67;100.00;94996.19;5335324;26;20015;-47
2024/05/03 02:32:34;;;;;;;0.30;0.30;;;12.10;67.40;;;7.68;100.00;94997.78;5335163;26;20107;-49
2024/05/03 02:34:59;;;;;;;0.30;0.30;;;12.10;67.40;;;7.68;100.00;94997.78;5334065;26;20024;-48
2024/05/03 02:37:25;;;;;;;0.20;0.20;;;12.20;67.40;;;7.69;100.00;94994.09;5334758;26;20013;-49
2024/05/03 02:39:51;;;;;;;0.65;0.30;;;12.20;67.40;;;7.71;100.00;94991.97;5333766;26;20433;-46
2024/05/03 02:42:17;;;;;;;0.52;0.40;;;12.20;67.30;;;7.73;100.00;94992.50;5335416;26;20078;-46
2024/05/03 02:44:43;;;;;;;0.30;0.30;;;12.20;67.10;;;7.70;100.00;95004.44;5334857;26;20037;-47
2024/05/03 02:47:08;;;;;;;0.98;0.30;;;12.20;67.20;;;7.72;100.00;95004.19;5333538;26;20463;-47
2024/05/03 02:49:34;;;;;;;0.20;0.20;;;12.20;67.00;;;7.76;100.00;95005.25;5334933;26;20074;-48
2024/05/03 02:52:00;;;;;;;1.67;0.30;;;12.20;66.90;;;7.76;100.00;95006.03;5336719;26;20040;-49
2024/05/03 02:54:26;;;;;;;0.47;0.40;;;12.20;66.80;;;7.80;100.00;95008.97;5338522;26;20004;-53
2024/05/03 02:56:52;;;;;;;0.63;0.40;;;12.30;66.80;;;7.77;100.00;95010.31;5337799;26;20016;-47
2024/05/03 02:59:17;;;;;;;0.30;0.30;;;12.30;66.80;;;7.78;100.00;95008.44;5337243;26;20009;-47
2024/05/03 03:01:45;;;;;;;0.28;0.20;;;12.30;66.80;;;7.76;100.00;95007.91;5338395;26;20009;-49
2024/05/03 03:04:11;;;;;;;0.20;0.20;;;12.30;66.70;;;7.80;100.00;95014.28;5337759;26;20016;-47
2024/05/03 03:06:37;;;;;;;0.20;0.20;;;12.30;66.60;;;7.77;100.00;95017.44;5337673;26;20085;-48
2024/05/03 03:09:03;;;;;;;0.20;0.20;;;12.30;66.50;;;7.75;100.00;95011.63;5338324;26;20055;-48
2024/05/03 03:11:29;;;;;;;0.30;0.30;;;12.30;66.40;;;7.80;100.00;95019.56;5337057;26;20040;-49
2024/05/03 03:13:55;;;;;;;0.38;0.30;;;12.30;66.30;;;7.85;100.00;95019.59;5338404;26;20008;-47
2024/05/03 03:16:22;;;;;;;0.30;0.30;;;12.30;66.20;;;7.83;100.00;95019.06;5336247;26;20004;-47
2024/05/03 03:18:49;;;;;;;0.40;0.25;;;12.30;66.10;;;7.84;100.00;95025.97;5338199;26;20001;-54
2024/05/03 03:21:18;;;;;;;0.40;0.20;;;12.30;66.00;;;7.85;100.00;95027.56;5338722;26;20037;-49
2024/05/03 03:23:45;;;;;;;0.30;0.22;;;12.30;65.90;;;7.87;100.00;95031.53;5336857;26;20004;-46
2024/05/03 03:26:11;;;;;;;0.30;0.30;;;12.30;65.80;;;7.89;100.00;95032.06;5337293;26;20090;-47
2024/05/03 03:28:37;;;;;;;0.45;0.30;;;12.30;65.70;;;7.88;100.00;95037.63;5336635;26;20008;-50
2024/05/03 03:31:03;;;;;;;1.17;0.30;;;12.30;65.60;;;7.92;100.00;95043.22;5338004;26;20074;-49
2024/05/03 03:33:29;;;;;;;0.52;0.30;;;12.30;65.50;;;7.94;100.00;95049.06;5337084;26;20005;-50
2024/05/03 03:35:55;;;;;;;0.30;0.30;;;12.40;65.40;;;7.96;100.00;95045.09;5338068;26;20017;-49
2024/05/03 03:38:21;;;;;;;0.30;0.20;;;12.40;65.40;;;7.98;100.00;95045.63;5336972;26;20371;-47
2024/05/03 03:40:47;;;;;;;0.20;0.20;;;12.40;65.30;;;7.98;100.00;95044.81;5333979;26;20008;-53
2024/05/03 03:43:13;;;;;;;0.20;0.20;;;12.40;65.20;;;8.00;100.00;95051.47;5337710;26;20359;-48
2024/05/03 03:45:38;;;;;;;0.75;0.22;;;12.40;65.00;;;7.98;100.00;95056.22;5336641;26;20005;-48
2024/05/03 03:48:05;;;;;;;0.30;0.30;;;12.40;64.90;;;7.95;100.00;95053.31;5337311;26;20020;-48
2024/05/03 03:50:31;;;;;;;0.63;0.30;;;12.40;64.80;;;7.92;100.00;95059.13;5337607;26;20548;-49
2024/05/03 03:52:57;;;;;;;0.45;0.30;;;12.40;64.70;;;7.91;100.00;95066.28;5336260;26;20020;-52
2024/05/03 03:55:22;;;;;;;0.35;0.35;;;12.40;64.60;;;7.93;100.00;95066.03;5337880;26;20008;-47
2024/05/03 03:57:48;;;;;;;0.82;0.40;;;12.40;64.40;;;7.88;100.00;95074.78;5335648;26;20013;-51
2024/05/03 04:00:14;;;;;;;0.57;0.40;;;12.40;64.30;;;7.91;100.00;95073.47;5337883;26;20009;-47
2024/05/03 04:02:43;;;;;;;0.40;0.30;;;12.40;64.20;;;7.88;100.00;95078.22;5336312;26;20022;-46
2024/05/03 04:05:09;;;;;;;2.70;0.40;;;12.40;64.10;;;7.91;100.00;95084.06;5336180;26;20088;-49
2024/05/03 04:07:36;;;;;;;0.68;0.30;;;12.40;63.90;;;7.92;100.00;95081.13;5336365;26;20015;-49
2024/05/03 04:10:02;;;;;;;0.57;0.45;;;12.40;64.60;;;7.94;100.00;95089.66;5336304;26;20012;-47
2024/05/03 04:12:28;;;;;;;1.75;0.55;;;12.40;63.80;;;7.92;100.00;95089.09;5337694;26;20039;-46
2024/05/03 04:14:54;;;;;;;0.40;0.40;;;12.40;63.70;;;7.87;100.00;95094.41;5336943;26;20016;-48
2024/05/03 04:17:20;;;;;;;0.95;0.40;;;12.40;63.60;;;7.90;100.00;95091.22;5335952;26;20350;-47
2024/05/03 04:19:45;;;;;;;0.82;0.40;;;12.40;63.50;;;7.89;100.00;95094.91;5337293;26;20024;-53
2024/05/03 04:22:11;;;;;;;2.58;0.40;;;12.40;63.40;;;7.88;100.00;95088.81;5335757;26;20110;-49
2024/05/03 04:24:37;;;;;;;0.80;0.50;;;12.40;63.30;;;7.89;100.00;95090.41;5337167;26;20052;-48
2024/05/03 04:27:03;;;;;;;2.75;0.63;;;12.40;63.20;;;7.91;100.00;95099.97;5335615;26;20012;-51
2024/05/03 04:29:29;;;;;;;1.75;0.50;;;12.40;63.20;;;7.94;100.00;95102.13;5341351;26;20016;-49
2024/05/03 04:31:55;;;;;;;0.47;0.40;;;12.40;63.10;;;7.95;100.00;95109.00;5333395;26;20473;-49
2024/05/03 04:34:21;;;;;;;1.10;0.60;;;12.40;63.00;;;7.89;100.00;95108.97;5334210;26;20085;-48
2024/05/03 04:36:46;;;;;;;0.40;0.40;;;12.40;62.90;;;7.93;100.00;95119.88;5336749;26;20370;-48
2024/05/03 04:39:12;;;;;;;1.33;0.38;;;12.40;62.80;;;7.89;99.88;95124.88;5336926;26;20574;-48
2024/05/03 04:41:38;;;;;;;1.83;0.50;;;12.40;62.70;;;7.90;99.60;95136.31;5335513;26;20364;-50
2024/05/03 04:44:04;;;;;;;1.65;0.45;;;12.40;62.50;;;7.97;99.01;95131.56;5337056;26;20008;-50
2024/05/03 04:46:30;;;;;;;2.25;0.85;;;12.40;62.40;;;7.92;98.29;95138.69;5328003;26;20020;-48
2024/05/03 04:48:56;;;;;;;0.77;0.60;;;12.50;62.30;;;7.95;97.39;95148.78;5336514;26;20472;-48
2024/05/03 04:51:22;;;;;;;1.23;0.40;;;12.50;62.10;;;7.97;97.29;95147.47;5336665;26;20024;-50
2024/05/03 04:53:48;;;;;;;0.60;0.43;;;12.40;61.90;;;7.98;96.36;95149.06;5336114;26;20390;-47
2024/05/03 04:56:23;;;;;;;0.40;0.40;;;12.50;61.80;;;8.00;96.32;95156.78;5337121;26;20008;-47
2024/05/03 04:58:50;;;;;;;1.00;0.50;;;12.50;61.60;;;8.04;96.55;95163.94;5335557;26;20426;-53
2024/05/03 05:01:18;;;;;;;0.82;0.38;;;12.50;61.50;;;8.04;95.13;95161.28;5337263;26;20115;-48
2024/05/03 05:03:44;;;;;;;0.50;0.43;;;12.50;61.30;;;8.03;94.41;95166.88;5336599;26;20498;-48
2024/05/03 05:06:14;;;;;;;1.58;0.60;;;12.50;61.00;;;8.04;93.67;95163.94;5344233;26;20018;-51
2024/05/03 05:08:40;;;;;;;1.85;0.50;;;12.60;60.90;;;8.07;93.40;95182.00;5336022;26;20027;-48
2024/05/03 05:11:06;;;;;;;0.50;0.50;;;12.60;60.60;;;8.14;93.44;95189.72;5335519;26;20362;-48
2024/05/03 05:13:35;;;;;;;1.15;0.57;;;12.60;60.50;;;8.19;93.25;95195.06;5336977;26;20016;-50
2024/05/03 05:16:01;;;;;;;1.50;0.43;;;12.60;60.40;;;8.19;92.50;95202.22;5335385;26;20351;-49
2024/05/03 05:18:27;;;;;;;0.70;0.50;;;12.70;60.40;;;8.20;91.72;95199.31;5336097;26;20025;-50
2024/05/03 05:23:37;;;;;;;1.30;0.60;;;12.70;60.00;;;8.24;91.22;95210.19;5335052;26;20048;-49
2024/05/03 05:26:03;;;;;;;0.85;0.60;;;12.70;59.90;;;8.25;91.14;95212.59;5336370;26;20363;-53
2024/05/03 05:28:29;;;;;;;2.38;0.50;;;12.70;59.80;;;8.32;90.62;95215.81;5332865;26;20380;-51
2024/05/03 05:30:55;;;;;;;2.10;0.40;;;12.70;59.60;;;8.33;90.20;95220.06;5334641;26;20054;-50
2024/05/03 05:33:21;;;;;;;0.63;0.55;;;12.80;59.60;;;8.36;90.50;95218.75;5333571;26;20027;-51
2024/05/03 05:35:46;;;;;;;0.82;0.40;;;12.80;59.50;;;8.34;89.65;95226.19;5335390;26;20019;-50
2024/05/03 05:38:12;;;;;;;0.90;0.47;;;12.90;59.40;;;8.32;89.47;95222.97;5337621;26;20016;-51
2024/05/03 05:40:38;;;;;;;1.48;0.60;;;12.90;59.80;;;8.38;89.07;95235.25;5334605;26;20431;-49
2024/05/03 05:43:04;;;;;;;1.02;0.40;;;12.90;59.10;;;8.40;89.01;95233.13;5336362;26;20082;-51
2024/05/03 05:45:30;;;;;;;2.58;0.47;;;12.90;59.00;;;8.37;88.15;95230.97;5334363;26;20103;-54
2024/05/03 05:47:56;;;;;;;0.65;0.40;;;13.00;58.90;;;8.34;87.84;95234.16;5335885;26;20048;-47
2024/05/03 05:50:22;;;;;;;1.38;0.40;;;13.00;58.70;;;8.41;88.56;95250.66;5336133;26;20012;-47
2024/05/03 05:52:48;;;;;;;3.15;0.70;;;13.00;58.60;;;8.45;88.35;95251.72;5334239;26;20008;-48
2024/05/03 05:55:13;;;;;;;2.13;0.50;;;13.00;58.50;;;8.48;88.40;95251.22;5335787;26;20077;-48
2024/05/03 05:57:39;;;;;;;1.10;0.50;;;13.10;58.50;;;8.48;87.44;95253.88;5331706;26;20488;-51
2024/05/03 06:00:08;;;;;;;1.95;0.50;;;13.10;58.40;;;8.50;87.25;95249.09;5335680;26;20000;-51
2024/05/03 06:02:36;;;;;;;0.80;0.40;;;13.10;58.20;;;8.55;87.01;95256.28;5334378;26;20030;-49
2024/05/03 06:05:02;;;;;;;0.80;0.60;;;13.20;58.10;;;8.57;86.51;95256.81;5333668;26;20410;-52
2024/05/03 06:07:28;;;;;;;1.42;0.80;;;13.30;58.00;;;8.64;86.69;95254.72;5335485;26;20023;-50
2024/05/03 06:09:54;;;;;;;1.05;0.50;;;13.40;57.90;;;8.69;86.22;95265.38;5333978;26;20004;-53
2024/05/03 06:12:19;;;;;;;1.70;0.50;;;13.40;57.70;;;8.66;85.51;95267.75;5335818;26;20474;-53
2024/05/03 06:14:45;;;;;;;1.38;0.60;;;13.50;57.50;;;8.74;84.96;95267.25;5335211;26;20447;-53
2024/05/03 06:17:11;;;;;;;1.35;0.70;;;13.60;57.20;;;8.82;84.64;95271.25;5334113;26;20008;-48
2024/05/03 06:19:37;;;;;;;2.35;0.47;;;13.70;57.10;;;8.86;83.46;95267.81;5331391;26;20355;-48
2024/05/03 06:22:04;;;;;;;1.52;0.70;;;13.80;56.90;;;8.92;83.59;95272.09;5297954;26;22776;-49
2024/05/03 06:24:30;;;;;;;0.82;0.47;;;13.90;56.60;;;9.02;82.65;95280.09;5340721;26;20012;-48
2024/05/03 06:26:56;;;;;;;1.15;0.70;;;14.00;56.40;;;9.11;81.51;95279.56;5336457;26;21344;-51
2024/05/03 06:29:25;;;;;;;2.03;0.60;;;14.10;56.20;;;9.19;81.34;95282.53;5337491;26;20036;-48
2024/05/03 06:31:51;;;;;;;1.95;0.60;;;14.20;56.10;;;9.23;81.17;95275.63;5338801;26;20467;-48
2024/05/03 06:34:17;;;;;;;2.95;0.60;;;14.30;55.80;;;9.20;80.37;95293.94;5337482;26;20030;-48
2024/05/03 06:36:43;;;;;;;1.23;0.55;;;14.40;55.50;;;9.24;79.89;95290.53;5338228;26;20027;-47
2024/05/03 06:39:10;;;;;;;1.13;0.50;;;14.50;55.20;;;9.35;80.05;95290.53;5340129;26;20027;-48
2024/05/03 06:41:40;;;;;;;0.60;0.50;;;14.50;54.90;;;9.41;79.53;95286.81;5348922;26;20073;-48
2024/05/03 06:44:06;;;;;;;2.25;0.60;;;14.60;54.60;;;9.47;79.48;95296.41;5332011;26;20086;-50
2024/05/03 06:46:32;;;;;;;0.68;0.50;;;14.70;54.30;;;9.56;78.44;95289.50;5336458;26;20465;-51
2024/05/03 06:48:58;;;;;;;1.40;0.57;;;14.90;54.20;;;9.57;78.45;95290.28;5338301;26;20082;-48
2024/05/03 06:51:24;;;;;;;1.30;0.70;;;15.00;53.80;;;9.53;78.22;95282.06;5337510;26;20032;-53
2024/05/03 06:53:50;;;;;;;2.78;0.63;;;15.10;53.40;;;9.70;78.44;95282.56;5333669;26;20050;-50
2024/05/03 06:56:16;;;;;;;2.33;0.60;;;15.10;53.30;;;9.77;78.02;95284.97;5336966;26;20533;-53
2024/05/03 06:58:43;;;;;;;2.67;0.70;;;15.20;53.30;;;9.81;78.12;95285.22;5336669;26;20018;-49
2024/05/03 07:01:09;;;;;;;2.50;0.65;;;15.20;53.20;;;9.84;77.96;95288.19;5338574;26;20019;-51
2024/05/03 07:03:38;;;;;;;1.98;0.90;;;15.30;53.00;;;9.90;77.52;95288.94;5337642;26;20016;-48
2024/05/03 07:06:04;;;;;;;1.80;0.60;;;15.40;52.90;;;9.98;77.36;95285.75;5337666;26;20012;-50
2024/05/03 07:08:30;;;;;;;0.77;0.57;;;15.50;52.80;;;10.15;76.19;95291.63;5337376;26;20012;-54
2024/05/03 07:10:55;;;;;;;4.53;0.80;;;15.60;52.70;;;10.18;75.93;95292.91;5337184;26;20028;-49
2024/05/03 07:13:21;;;;;;;3.30;0.55;;;15.70;52.40;;;10.14;75.31;95292.66;5338396;26;20019;-48
2024/05/03 07:15:47;;;;;;;1.45;0.50;;;15.80;52.10;;;10.11;75.34;95298.53;5336929;26;20000;-51
2024/05/03 07:18:13;;;;;;;0.73;0.52;;;15.80;51.80;;;10.17;75.96;95291.34;5336381;26;20004;-49
2024/05/03 07:20:41;;;;;;;2.45;0.70;;;15.80;51.80;;;10.15;75.28;95291.63;5338068;26;20020;-49
2024/05/03 07:23:08;;;;;;;1.75;0.52;;;15.80;51.80;;;10.14;75.59;95299.84;5336832;26;20012;-51
2024/05/03 07:25:35;;;;;;;1.50;0.60;;;15.70;51.70;;;10.00;75.39;95301.44;5336949;26;20498;-48
2024/05/03 07:28:01;;;;;;;1.27;0.50;;;15.70;51.50;;;9.98;75.87;95309.72;5336152;26;20009;-49
2024/05/03 07:30:26;;;;;;;2.13;0.57;;;15.60;51.50;;;9.92;76.30;95308.13;5333468;26;20000;-49
2024/05/03 07:32:52;;;;;;;0.50;0.50;;;15.50;51.50;;;9.91;76.33;95306.53;5333288;26;20526;-48
2024/05/03 07:35:18;;;;;;;0.55;0.50;;;15.40;51.60;;;9.87;76.21;95324.06;5333284;26;20078;-50
2024/05/03 07:37:44;;;;;;;2.08;0.65;;;15.30;51.70;;;9.83;76.77;95313.16;5333791;26;20009;-47
2024/05/03 07:40:11;;;;;;;1.45;0.70;;;15.30;51.70;;;9.88;76.84;95323.81;5332742;26;20082;-49
2024/05/03 07:42:37;;;;;;;2.65;0.93;;;15.20;51.80;;;9.85;77.31;95328.88;5361201;26;20690;-51
2024/05/03 07:45:03;;;;;;;0.63;0.50;;;15.20;52.00;;;9.78;77.68;95331.81;5331318;26;20008;-54
2024/05/03 07:47:29;;;;;;;0.65;0.52;;;15.20;52.00;;;9.84;77.91;95333.41;5330666;26;20471;-48
2024/05/03 07:49:55;;;;;;;0.98;0.52;;;15.20;52.10;;;9.78;77.49;95331.81;5336582;26;20051;-48
2024/05/03 07:52:23;;;;;;;1.15;0.63;;;15.10;52.10;;;9.75;77.57;95335.00;5339025;26;20016;-52
2024/05/03 07:54:49;;;;;;;3.78;0.70;;;15.10;52.10;;;9.76;78.08;95327.81;5336668;26;20015;-53
2024/05/03 07:57:15;;;;;;;0.45;0.45;;;15.10;52.10;;;9.77;78.33;95330.19;5337363;26;20436;-49
2024/05/03 07:59:41;;;;;;;0.85;0.52;;;15.10;52.10;;;9.83;78.36;95333.66;5336150;26;20099;-52
2024/05/03 08:02:08;;;;;;;3.33;0.70;;;15.20;52.30;;;9.90;78.62;95339.50;5337548;26;20012;-49
2024/05/03 08:04:33;;;;;;;2.53;0.73;;;15.20;52.30;;;9.90;78.67;95335.00;5334117;26;20019;-48
2024/05/03 08:06:59;;;;;;;2.30;0.60;;;15.20;52.40;;;9.83;78.54;95333.66;5332646;26;20351;-50
2024/05/03 08:09:25;;;;;;;2.35;0.60;;;15.20;52.40;;;9.83;78.67;95338.97;5333256;26;20016;-49
2024/05/03 08:11:52;;;;;;;0.57;0.50;;;15.10;52.30;;;9.90;79.09;95339.50;5331103;26;20023;-52
2024/05/03 08:14:17;;;;;;;5.05;0.80;;;15.20;52.50;;;9.88;78.40;95331.81;5333515;26;20130;-50
2024/05/03 08:16:43;;;;;;;1.92;0.60;;;15.10;53.10;;;9.84;78.87;95340.56;5331273;26;20031;-53
2024/05/03 08:19:09;;;;;;;0.88;0.80;;;15.10;52.40;;;9.77;79.58;95346.16;5333762;26;20074;-49
2024/05/03 08:21:35;;;;;;;1.23;0.70;;;15.10;52.40;;;9.73;79.52;95345.88;5330883;26;20027;-50
2024/05/03 08:24:01;;;;;;;1.02;0.70;;;15.20;52.50;;;9.75;80.01;95344.84;5334254;26;20004;-50
2024/05/03 08:26:27;;;;;;;0.70;0.70;;;15.10;52.50;;;9.78;80.13;95346.94;5332776;26;20005;-50
2024/05/03 08:28:53;;;;;;;0.60;0.60;;;15.10;52.60;;;9.80;80.44;95350.94;5334842;26;20014;-50
2024/05/03 08:31:19;;;;;;;1.67;0.80;;;15.10;52.60;;;9.89;79.91;95353.88;5337230;26;20008;-51
2024/05/03 08:33:44;;;;;;;3.30;0.70;;;15.10;52.70;;;9.98;80.21;95351.50;5335900;26;20027;-50
2024/05/03 08:36:12;;;;;;;2.03;0.75;;;15.20;52.80;;;10.00;79.28;95350.16;5336355;26;20474;-53
2024/05/03 08:38:37;;;;;;;3.08;0.70;;;15.20;52.70;;;10.00;79.94;95349.34;5336019;26;20027;-56
2024/05/03 08:41:09;;;;;;;2.75;0.90;;;15.30;52.70;;;10.03;80.12;95336.34;5335540;26;20004;-51
2024/05/03 08:43:54;;;;;;;4.82;0.98;;;15.30;52.80;;;10.03;79.75;95344.31;5336693;26;20011;-48
2024/05/03 08:46:25;;;;;;;1.05;0.80;;;15.30;52.80;;;10.05;79.93;95349.34;5333593;26;20009;-55
2024/05/03 08:48:53;;;;;;;2.70;0.70;;;15.40;52.70;;;10.20;80.12;95338.72;5335963;26;20475;-53
2024/05/03 08:51:27;;;;;;;1.38;0.80;;;15.40;52.70;;;10.36;79.84;95350.16;5337239;26;20723;-52
2024/05/03 08:54:21;;;;;;;2.08;0.82;;;15.60;52.70;;;10.43;78.19;95356.00;5335249;26;20020;-54
2024/05/03 08:56:48;;;;;;;2.15;0.90;;;15.80;52.60;;;10.56;77.99;95360.81;5334742;26;20016;-53
2024/05/03 08:59:16;;;;;;;2.13;1.10;;;16.00;52.40;;;10.74;76.82;95364.75;5350537;26;20008;-55
2024/05/03 09:01:43;;;;;;;1.23;0.80;;;16.20;52.10;;;10.89;76.25;95359.38;5336748;26;20020;-49
2024/05/03 09:04:09;;;;;;;2.17;0.90;;;16.40;51.90;;;11.07;74.80;95357.97;5333829;26;20060;-54
2024/05/03 09:06:40;;;;;;;1.50;1.13;;;16.70;51.70;;;11.33;74.42;95363.19;5335751;26;20463;-55
2024/05/03 09:09:06;;;;;;;2.75;1.30;;;16.90;51.30;;;11.49;72.56;95363.91;5336748;26;20103;-53
2024/05/03 09:11:34;;;;;;;3.70;1.40;;;17.30;51.00;;;11.54;72.28;95364.69;5335138;26;20459;-52
2024/05/03 09:14:00;;;;;;;2.90;1.23;;;17.50;50.40;;;11.68;71.91;95364.88;5363490;26;20027;-48
2024/05/03 09:16:26;;;;;;;2.67;1.10;;;17.70;49.90;;;11.84;69.93;95364.78;5333886;26;20008;-48
2024/05/03 09:18:53;;;;;;;2.72;1.10;;;17.90;49.50;;;11.84;70.00;95362.91;5334747;26;20019;-49
2024/05/03 09:21:20;;;;;;;1.52;1.00;;;18.20;48.90;;;12.09;69.45;95364.63;5336613;26;20008;-54
2024/05/03 09:23:46;;;;;;;2.20;1.10;;;18.40;48.60;;;12.15;69.28;95357.38;5334947;26;20467;-50
2024/05/03 09:26:12;;;;;;;9.55;1.63;;;18.60;48.30;;;12.27;67.84;95363.94;5335723;26;20077;-52
2024/05/03 09:28:44;;;;;;;1.38;0.90;;;18.70;47.90;;;12.21;68.09;95373.06;5336592;26;20012;-49
2024/05/03 09:31:22;;;;;;;2.70;1.00;;;18.70;47.50;;;12.16;67.41;95377.63;5358992;26;20013;-52
2024/05/03 09:33:50;;;;;;;3.45;0.90;;;18.70;47.30;;;12.17;67.14;95368.56;5333163;26;20099;-53
2024/05/03 09:36:16;;;;;;;0.90;0.90;;;18.80;46.90;;;12.42;66.80;95373.69;5334442;26;20012;-49
2024/05/03 09:38:43;;;;;;;1.60;0.80;;;18.80;46.80;;;12.47;65.91;95370.16;5336601;26;20080;-51
2024/05/03 09:41:09;;;;;;;1.77;0.70;;;18.90;46.80;;;12.57;65.92;95366.63;5344898;26;20031;-50
2024/05/03 09:43:35;;;;;;;1.63;0.70;;;18.80;46.80;;;12.47;65.85;95371.00;5335943;26;20366;-51
2024/05/03 09:46:05;;;;;;;1.58;0.88;;;18.70;46.60;;;12.38;66.66;95374.53;5335297;26;20053;-51
2024/05/03 09:48:32;;;;;;;1.33;0.88;;;18.70;46.60;;;12.26;67.59;95367.69;5335964;26;20016;-49
2024/05/03 09:51:02;;;;;;;2.22;1.08;;;18.60;46.60;;;12.38;68.55;95370.00;5362726;26;20084;-48
2024/05/03 09:53:31;;;;;;;2.67;1.20;;;18.50;46.80;;;12.25;68.95;95360.75;5336426;26;20000;-50
2024/05/03 09:56:13;;;;;;;3.33;0.95;;;18.50;47.00;;;12.39;nan;95371.59;5335321;26;20040;-48
2024/05/03 09:59:02;;;;;;;2.10;0.90;;;18.40;47.10;;;12.29;68.64;95369.00;5333292;26;20015;-48
2024/05/03 10:01:34;;;;;;;1.80;1.00;;;18.40;47.20;;;12.07;70.48;95366.78;5357309;26;20016;-52
2024/05/03 10:04:02;;;;;;;3.00;0.98;;;18.20;47.10;;;12.17;69.61;95372.03;5363575;26;20142;-48
2024/05/03 10:06:30;;;;;;;2.00;1.05;;;18.00;47.40;;;12.08;70.90;95371.03;5338132;26;20020;-49
2024/05/03 10:08:59;;;;;;;3.45;1.20;;;17.90;47.70;;;12.09;70.82;95372.63;5366308;26;20005;-50
2024/05/03 10:11:28;;;;;;;1.13;0.85;;;17.70;47.90;;;11.98;69.58;95371.13;5336462;26;20016;-51
2024/05/03 10:13:56;;;;;;;1.60;0.70;;;17.60;48.00;;;11.63;71.01;95372.13;5366062;26;20012;-48
2024/05/03 10:16:24;;;;;;;1.45;0.70;;;17.50;48.00;;;11.57;70.57;95372.16;5336844;26;20019;-48
2024/05/03 10:18:52;;;;;;;1.05;0.60;;;17.40;48.10;;;11.39;70.33;95375.44;5365669;26;20013;-52
2024/05/03 10:21:40;;;;;;;2.33;0.80;;;17.30;48.00;;;11.42;70.96;95374.88;5338607;26;20019;-51
2024/05/03 10:24:06;;;;;;;1.50;0.80;;;17.30;48.10;;;11.47;70.23;95380.22;5338782;26;20008;-53